createdAt,value
2019-05-16T00:00:34.859Z,101837.67
2019-05-16T00:01:40.909Z,101837.33
2019-05-16T00:02:48.003Z,101842.27
2019-05-16T00:03:53.423Z,101841.41
2019-05-16T00:04:59.281Z,101841.54
2019-05-16T00:06:05.282Z,101843.44
2019-05-16T00:07:10.218Z,101839.20
2019-05-16T00:08:17.850Z,101836.63
2019-05-16T00:09:22.661Z,101840.27
2019-05-16T00:10:28.363Z,101838.18
2019-05-16T00:11:34.264Z,101835.27
2019-05-16T00:12:40.189Z,101837.45
2019-05-16T00:13:45.181Z,101833.67
2019-05-16T00:14:51.156Z,101842.14
2019-05-16T00:15:58.556Z,101832.56
2019-05-16T00:17:03.502Z,101836.17
2019-05-16T00:18:08.807Z,101833.99
2019-05-16T00:19:14.584Z,101836.78
2019-05-16T00:20:19.856Z,101836.40
2019-05-16T00:21:25.354Z,101834.69
2019-05-16T00:22:30.352Z,101835.67
2019-05-16T00:23:37.807Z,101840.48
2019-05-16T00:24:43.245Z,101836.14
2019-05-16T00:25:49.122Z,101835.28
2019-05-16T00:26:54.113Z,101829.67
2019-05-16T00:27:59.926Z,101835.00
2019-05-16T00:29:04.987Z,101827.97
2019-05-16T00:30:11.008Z,101824.19
2019-05-16T00:31:18.164Z,101833.13
2019-05-16T00:32:23.184Z,101825.27
2019-05-16T00:33:28.699Z,101828.49
2019-05-16T00:34:34.283Z,101826.44
2019-05-16T00:35:39.229Z,101830.64
2019-05-16T00:36:44.853Z,101830.26
2019-05-16T00:37:50.608Z,101830.38
2019-05-16T00:38:57.848Z,101829.14
2019-05-16T00:40:02.971Z,101826.10
2019-05-16T00:41:08.667Z,101825.75
2019-05-16T00:42:13.717Z,101824.05
2019-05-16T00:43:19.190Z,101826.83
2019-05-16T00:44:24.312Z,101820.27
2019-05-16T00:45:48.692Z,101816.97
2019-05-16T00:47:17.769Z,101820.10
2019-05-16T00:48:23.388Z,101819.84
2019-05-16T00:49:28.463Z,101815.00
2019-05-16T00:50:34.223Z,101810.63
2019-05-16T00:51:39.325Z,101815.47
2019-05-16T00:52:44.935Z,101810.63
2019-05-16T00:53:50.041Z,101816.80
2019-05-16T00:54:57.836Z,101812.72
2019-05-16T00:56:02.656Z,101811.01
2019-05-16T00:57:08.730Z,101808.34
2019-05-16T00:58:14.862Z,101812.34
2019-05-16T00:59:21.705Z,101810.53
2019-05-16T01:00:45.753Z,101803.03
2019-05-16T01:01:51.234Z,101803.97
2019-05-16T01:02:57.875Z,101805.05
2019-05-16T01:04:03.839Z,101809.52
2019-05-16T01:05:09.302Z,101801.53
2019-05-16T01:06:19.940Z,101804.19
2019-05-16T01:07:21.703Z,101794.15
2019-05-16T01:08:28.108Z,101788.83
2019-05-16T01:09:33.425Z,101796.72
2019-05-16T01:10:40.406Z,101794.06
2019-05-16T01:11:45.624Z,101792.82
2019-05-16T01:12:51.273Z,101795.48
2019-05-16T01:13:57.839Z,101787.97
2019-05-16T01:15:03.739Z,101789.30
2019-05-16T01:16:08.854Z,101784.11
2019-05-16T01:17:15.058Z,101786.86
2019-05-16T01:18:20.136Z,101784.33
2019-05-16T01:19:27.692Z,101783.09
2019-05-16T01:20:32.897Z,101781.97
2019-05-16T01:21:39.079Z,101785.96
2019-05-16T01:22:44.213Z,101787.29
2019-05-16T01:23:49.713Z,101786.44
2019-05-16T01:24:54.919Z,101781.59
2019-05-16T01:26:00.496Z,101786.91
2019-05-16T01:27:05.683Z,101775.06
2019-05-16T01:28:11.314Z,101784.25
2019-05-16T01:29:18.710Z,101779.79
2019-05-16T01:30:23.676Z,101782.92
2019-05-16T01:31:29.009Z,101779.41
2019-05-16T01:32:34.473Z,101781.72
2019-05-16T01:33:39.793Z,101778.58
2019-05-16T01:34:45.323Z,101787.98
2019-05-16T01:35:50.224Z,101777.81
2019-05-16T01:36:55.766Z,101774.69
2019-05-16T01:38:01.143Z,101780.00
2019-05-16T01:39:07.989Z,101774.30
2019-05-16T01:40:14.440Z,101778.41
2019-05-16T01:41:20.092Z,101778.51
2019-05-16T01:42:25.008Z,101776.32
2019-05-16T01:43:31.578Z,101774.26
2019-05-16T01:44:38.190Z,101767.70
2019-05-16T01:45:43.800Z,101771.69
2019-05-16T01:46:48.704Z,101770.02
2019-05-16T01:47:54.236Z,101777.52
2019-05-16T01:48:59.339Z,101770.02
2019-05-16T01:50:05.851Z,101767.35
2019-05-16T01:51:11.188Z,101765.64
2019-05-16T01:52:17.856Z,101764.78
2019-05-16T01:53:23.248Z,101763.93
2019-05-16T01:54:28.670Z,101764.52
2019-05-16T01:55:33.589Z,101761.95
2019-05-16T01:56:39.044Z,101766.45
2019-05-16T01:57:44.045Z,101768.34
2019-05-16T01:58:49.591Z,101760.84
2019-05-16T01:59:54.812Z,101761.82
2019-05-16T02:01:11.561Z,101764.19
2019-05-16T02:02:08.391Z,101758.05
2019-05-16T02:03:14.161Z,101760.41
2019-05-16T02:04:19.261Z,101759.59
2019-05-16T02:05:24.879Z,101763.20
2019-05-16T02:06:30.032Z,101764.05
2019-05-16T02:07:35.499Z,101759.68
2019-05-16T02:08:40.448Z,101755.69
2019-05-16T02:09:47.673Z,101761.01
2019-05-16T02:10:52.950Z,101752.09
2019-05-16T02:11:59.012Z,101752.09
2019-05-16T02:13:04.227Z,101754.27
2019-05-16T02:14:09.709Z,101751.49
2019-05-16T02:15:14.877Z,101752.35
2019-05-16T02:16:20.481Z,101749.09
2019-05-16T02:17:25.552Z,101752.61
2019-05-16T02:18:31.094Z,101754.41
2019-05-16T02:19:38.380Z,101746.91
2019-05-16T02:20:43.763Z,101746.91
2019-05-16T02:21:50.698Z,101747.29
2019-05-16T02:22:55.931Z,101745.58
2019-05-16T02:24:02.135Z,101741.59
2019-05-16T02:25:08.618Z,101741.24
2019-05-16T02:26:13.622Z,101739.79
2019-05-16T02:27:19.285Z,101739.31
2019-05-16T02:28:30.390Z,101738.37
2019-05-16T02:29:31.833Z,101736.09
2019-05-16T02:30:36.747Z,101736.09
2019-05-16T02:31:42.478Z,101729.92
2019-05-16T02:32:47.439Z,101728.12
2019-05-16T02:33:52.906Z,101732.84
2019-05-16T02:35:00.920Z,101729.32
2019-05-16T02:36:05.255Z,101726.66
2019-05-16T02:37:23.600Z,101730.56
2019-05-16T02:38:20.879Z,101729.58
2019-05-16T02:39:24.297Z,101726.06
2019-05-16T02:40:31.276Z,101731.38
2019-05-16T02:41:36.688Z,101731.38
2019-05-16T02:42:42.639Z,101730.05
2019-05-16T02:43:50.658Z,101731.89
2019-05-16T02:44:55.335Z,101726.58
2019-05-16T02:46:01.417Z,101727.52
2019-05-16T02:47:10.621Z,101725.81
2019-05-16T02:48:14.090Z,101722.80
2019-05-16T02:49:21.682Z,101723.75
2019-05-16T02:50:27.080Z,101719.29
2019-05-16T02:51:32.536Z,101723.27
2019-05-16T02:52:37.469Z,101721.66
2019-05-16T02:53:43.317Z,101721.30
2019-05-16T02:54:51.553Z,101722.73
2019-05-16T02:55:55.658Z,101721.05
2019-05-16T02:57:01.348Z,101717.63
2019-05-16T02:58:07.281Z,101722.09
2019-05-16T02:59:12.229Z,101718.09
2019-05-16T03:00:22.389Z,101714.58
2019-05-16T03:01:27.667Z,101712.52
2019-05-16T03:02:33.200Z,101716.42
2019-05-16T03:03:40.261Z,101713.38
2019-05-16T03:04:46.298Z,101711.58
2019-05-16T03:05:51.890Z,101709.65
2019-05-16T03:07:00.697Z,101715.34
2019-05-16T03:08:05.586Z,101711.45
2019-05-16T03:09:11.751Z,101705.19
2019-05-16T03:10:20.119Z,101709.17
2019-05-16T03:11:26.244Z,101705.58
2019-05-16T03:12:32.690Z,101706.05
2019-05-16T03:13:42.243Z,101698.92
2019-05-16T03:14:50.358Z,101698.07
2019-05-16T03:16:00.645Z,101698.45
2019-05-16T03:17:06.081Z,101698.92
2019-05-16T03:18:13.496Z,101702.91
2019-05-16T03:19:21.674Z,101704.24
2019-05-16T03:20:31.473Z,101700.25
2019-05-16T03:21:37.637Z,101700.82
2019-05-16T03:22:45.598Z,101700.34
2019-05-16T03:23:50.810Z,101699.88
2019-05-16T03:24:56.513Z,101699.66
2019-05-16T03:26:01.689Z,101695.58
2019-05-16T03:27:07.235Z,101695.84
2019-05-16T03:28:12.147Z,101697.89
2019-05-16T03:29:17.612Z,101696.95
2019-05-16T03:30:24.036Z,101692.02
2019-05-16T03:31:34.033Z,101692.02
2019-05-16T03:32:44.015Z,101687.17
2019-05-16T03:33:56.276Z,101688.02
2019-05-16T03:34:54.683Z,101688.84
2019-05-16T03:36:04.778Z,101688.02
2019-05-16T03:37:06.408Z,101685.37
2019-05-16T03:38:12.423Z,101688.02
2019-05-16T03:39:17.563Z,101684.51
2019-05-16T03:40:26.912Z,101693.34
2019-05-16T03:41:31.816Z,101690.17
2019-05-16T03:42:37.299Z,101690.30
2019-05-16T03:43:42.233Z,101686.31
2019-05-16T03:44:51.044Z,101693.81
2019-05-16T03:45:54.335Z,101692.73
2019-05-16T03:47:01.016Z,101687.80
2019-05-16T03:48:06.119Z,101682.70
2019-05-16T03:49:11.658Z,101691.89
2019-05-16T03:50:16.942Z,101687.80
2019-05-16T03:51:22.512Z,101685.63
2019-05-16T03:52:27.419Z,101688.53
2019-05-16T03:53:32.968Z,101685.78
2019-05-16T03:54:38.010Z,101684.92
2019-05-16T03:55:43.526Z,101683.12
2019-05-16T03:56:51.191Z,101679.61
2019-05-16T03:57:55.672Z,101681.41
2019-05-16T03:59:01.154Z,101676.19
2019-05-16T04:00:07.128Z,101673.44
2019-05-16T04:01:12.474Z,101672.97
2019-05-16T04:02:17.930Z,101671.98
2019-05-16T04:03:23.870Z,101669.33
2019-05-16T04:04:31.101Z,101680.34
2019-05-16T04:05:35.997Z,101671.98
2019-05-16T04:06:41.979Z,101671.51
2019-05-16T04:07:46.872Z,101673.69
2019-05-16T04:08:52.595Z,101672.74
2019-05-16T04:09:57.555Z,101675.28
2019-05-16T04:11:03.075Z,101670.34
2019-05-16T04:12:10.594Z,101669.27
2019-05-16T04:13:15.508Z,101670.97
2019-05-16T04:14:21.550Z,101665.56
2019-05-16T04:15:27.227Z,101662.05
2019-05-16T04:16:32.231Z,101664.70
2019-05-16T04:17:40.856Z,101667.37
2019-05-16T04:18:44.534Z,101668.79
2019-05-16T04:19:50.966Z,101672.78
2019-05-16T04:20:56.086Z,101671.20
2019-05-16T04:22:01.887Z,101677.46
2019-05-16T04:23:11.295Z,101670.47
2019-05-16T04:24:16.906Z,101672.27
2019-05-16T04:25:25.144Z,101669.70
2019-05-16T04:26:33.635Z,101675.02
2019-05-16T04:27:41.237Z,101671.16
2019-05-16T04:28:44.996Z,101671.64
2019-05-16T04:29:51.331Z,101672.97
2019-05-16T04:30:57.301Z,101668.97
2019-05-16T04:32:02.240Z,101671.16
2019-05-16T04:33:10.794Z,101674.30
2019-05-16T04:34:15.026Z,101669.92
2019-05-16T04:35:21.474Z,101672.97
2019-05-16T04:36:26.654Z,101670.30
2019-05-16T04:37:32.202Z,101668.13
2019-05-16T04:38:45.115Z,101668.50
2019-05-16T04:39:44.510Z,101674.17
2019-05-16T04:40:51.623Z,101679.39
2019-05-16T04:41:56.828Z,101674.08
2019-05-16T04:43:06.303Z,101674.80
2019-05-16T04:44:12.112Z,101676.61
2019-05-16T04:45:20.918Z,101668.92
2019-05-16T04:46:24.815Z,101669.27
2019-05-16T04:47:31.638Z,101671.83
2019-05-16T04:48:37.227Z,101670.88
2019-05-16T04:49:42.219Z,101671.61
2019-05-16T04:50:51.203Z,101670.53
2019-05-16T04:51:54.463Z,101669.96
2019-05-16T04:53:01.373Z,101675.16
2019-05-16T04:54:07.340Z,101683.39
2019-05-16T04:55:13.847Z,101671.80
2019-05-16T04:56:21.681Z,101677.84
2019-05-16T04:57:26.730Z,101673.77
2019-05-16T04:58:32.064Z,101675.47
2019-05-16T04:59:41.861Z,101674.61
2019-05-16T05:00:51.253Z,101670.50
2019-05-16T05:01:55.073Z,101670.02
2019-05-16T05:03:01.330Z,101670.02
2019-05-16T05:04:14.019Z,101667.74
2019-05-16T05:05:14.800Z,101669.45
2019-05-16T05:06:20.784Z,101666.41
2019-05-16T05:07:26.348Z,101663.75
2019-05-16T05:08:48.688Z,101664.23
2019-05-16T05:09:40.921Z,101658.44
2019-05-16T05:10:45.715Z,101660.14
2019-05-16T05:11:51.977Z,101667.14
2019-05-16T05:12:57.716Z,101657.10
2019-05-16T05:14:03.199Z,101653.59
2019-05-16T05:15:11.489Z,101655.17
2019-05-16T05:16:20.034Z,101658.21
2019-05-16T05:17:25.161Z,101655.80
2019-05-16T05:18:30.478Z,101655.70
2019-05-16T05:19:36.580Z,101660.89
2019-05-16T05:20:41.908Z,101655.48
2019-05-16T05:21:47.422Z,101649.55
2019-05-16T05:22:52.520Z,101648.00
2019-05-16T05:24:00.088Z,101649.09
2019-05-16T05:25:05.518Z,101651.66
2019-05-16T05:26:11.179Z,101653.72
2019-05-16T05:27:16.579Z,101652.77
2019-05-16T05:28:22.287Z,101653.24
2019-05-16T05:29:27.371Z,101654.58
2019-05-16T05:30:33.317Z,101654.67
2019-05-16T05:31:46.454Z,101659.89
2019-05-16T05:32:52.350Z,101658.19
2019-05-16T05:34:00.715Z,101653.84
2019-05-16T05:35:04.986Z,101657.46
2019-05-16T05:36:12.409Z,101652.99
2019-05-16T05:37:20.251Z,101655.91
2019-05-16T05:38:24.516Z,101645.64
2019-05-16T05:39:30.427Z,101649.88
2019-05-16T05:40:35.615Z,101652.41
2019-05-16T05:41:41.099Z,101646.61
2019-05-16T05:42:46.096Z,101648.80
2019-05-16T05:43:54.448Z,101651.08
2019-05-16T05:45:00.291Z,101649.66
2019-05-16T05:46:06.208Z,101648.60
2019-05-16T05:47:11.220Z,101648.03
2019-05-16T05:48:16.780Z,101647.90
2019-05-16T05:49:21.949Z,101647.42
2019-05-16T05:50:27.734Z,101652.65
2019-05-16T05:51:32.798Z,101644.05
2019-05-16T05:52:41.126Z,101652.28
2019-05-16T05:53:45.807Z,101646.48
2019-05-16T05:54:51.535Z,101648.67
2019-05-16T05:55:56.538Z,101653.05
2019-05-16T05:57:02.109Z,101650.16
2019-05-16T05:58:07.116Z,101651.83
2019-05-16T05:59:13.251Z,101650.17
2019-05-16T06:00:21.069Z,101648.70
2019-05-16T06:01:26.150Z,101648.50
2019-05-16T06:02:31.193Z,101650.56
2019-05-16T06:03:36.699Z,101651.28
2019-05-16T06:04:41.660Z,101661.70
2019-05-16T06:05:50.264Z,101652.38
2019-05-16T06:06:54.556Z,101654.09
2019-05-16T06:08:00.420Z,101648.77
2019-05-16T06:09:06.282Z,101650.81
2019-05-16T06:10:12.392Z,101655.66
2019-05-16T06:11:17.352Z,101651.67
2019-05-16T06:12:22.919Z,101647.67
2019-05-16T06:13:27.919Z,101651.67
2019-05-16T06:14:33.511Z,101649.48
2019-05-16T06:15:40.008Z,101650.57
2019-05-16T06:16:45.572Z,101652.03
2019-05-16T06:17:51.025Z,101652.98
2019-05-16T06:18:56.874Z,101650.56
2019-05-16T06:20:01.966Z,101647.04
2019-05-16T06:21:07.484Z,101655.88
2019-05-16T06:22:12.552Z,101653.70
2019-05-16T06:23:20.778Z,101645.61
2019-05-16T06:24:25.389Z,101649.95
2019-05-16T06:25:31.699Z,101645.72
2019-05-16T06:26:37.176Z,101642.58
2019-05-16T06:27:42.833Z,101642.58
2019-05-16T06:28:50.419Z,101647.20
2019-05-16T06:29:57.363Z,101647.95
2019-05-16T06:31:02.719Z,101644.67
2019-05-16T06:32:10.297Z,101646.16
2019-05-16T06:33:16.693Z,101642.88
2019-05-16T06:34:22.528Z,101642.16
2019-05-16T06:35:29.744Z,101644.35
2019-05-16T06:36:34.764Z,101645.07
2019-05-16T06:37:40.648Z,101641.83
2019-05-16T06:38:46.660Z,101638.66
2019-05-16T06:39:51.694Z,101639.88
2019-05-16T06:41:00.064Z,101639.65
2019-05-16T06:42:04.331Z,101639.66
2019-05-16T06:43:10.944Z,101634.46
2019-05-16T06:44:16.268Z,101635.80
2019-05-16T06:45:21.866Z,101634.84
2019-05-16T06:46:26.792Z,101631.35
2019-05-16T06:47:32.352Z,101627.73
2019-05-16T06:48:39.683Z,101630.63
2019-05-16T06:49:44.938Z,101634.52
2019-05-16T06:50:51.877Z,101629.31
2019-05-16T06:51:59.552Z,101633.78
2019-05-16T06:53:04.247Z,101626.05
2019-05-16T06:54:10.145Z,101630.91
2019-05-16T06:55:14.963Z,101628.58
2019-05-16T06:56:20.793Z,101626.28
2019-05-16T06:57:43.859Z,101624.74
2019-05-16T06:58:51.811Z,101623.53
2019-05-16T06:59:55.821Z,101618.80
2019-05-16T07:01:03.506Z,101611.04
2019-05-16T07:02:10.874Z,101613.35
2019-05-16T07:03:15.546Z,101612.59
2019-05-16T07:04:20.611Z,101609.70
2019-05-16T07:05:26.083Z,101607.98
2019-05-16T07:06:51.868Z,101605.91
2019-05-16T07:07:40.502Z,101609.67
2019-05-16T07:08:45.130Z,101611.60
2019-05-16T07:09:59.958Z,101612.58
2019-05-16T07:10:59.949Z,101611.33
2019-05-16T07:12:05.430Z,101608.67
2019-05-16T07:13:10.520Z,101608.91
2019-05-16T07:14:16.050Z,101608.39
2019-05-16T07:15:21.327Z,101612.03
2019-05-16T07:16:26.787Z,101599.87
2019-05-16T07:17:31.849Z,101600.95
2019-05-16T07:18:39.601Z,101594.02
2019-05-16T07:19:44.041Z,101604.45
2019-05-16T07:20:51.057Z,101598.14
2019-05-16T07:21:56.571Z,101602.89
2019-05-16T07:23:02.119Z,101604.56
2019-05-16T07:24:07.428Z,101601.55
2019-05-16T07:25:13.677Z,101605.67
2019-05-16T07:26:20.486Z,101603.48
2019-05-16T07:27:26.319Z,101599.11
2019-05-16T07:28:31.482Z,101599.96
2019-05-16T07:29:37.094Z,101597.44
2019-05-16T07:30:42.335Z,101602.41
2019-05-16T07:31:48.181Z,101595.87
2019-05-16T07:32:53.443Z,101595.02
2019-05-16T07:34:00.887Z,101595.50
2019-05-16T07:35:09.620Z,101596.61
2019-05-16T07:36:15.989Z,101590.05
2019-05-16T07:37:21.373Z,101590.91
2019-05-16T07:38:26.903Z,101594.91
2019-05-16T07:39:31.964Z,101595.61
2019-05-16T07:40:39.935Z,101590.64
2019-05-16T07:41:44.077Z,101589.68
2019-05-16T07:42:51.007Z,101591.35
2019-05-16T07:43:56.354Z,101594.88
2019-05-16T07:45:02.269Z,101590.76
2019-05-16T07:46:07.684Z,101591.47
2019-05-16T07:47:13.302Z,101592.55
2019-05-16T07:48:21.634Z,101590.13
2019-05-16T07:49:26.021Z,101593.77
2019-05-16T07:50:31.522Z,101584.94
2019-05-16T07:51:37.133Z,101582.86
2019-05-16T07:52:42.527Z,101580.90
2019-05-16T07:53:50.404Z,101590.73
2019-05-16T07:54:55.766Z,101587.09
2019-05-16T07:56:01.616Z,101587.43
2019-05-16T07:57:18.524Z,101586.23
2019-05-16T07:58:14.069Z,101583.83
2019-05-16T07:59:20.445Z,101583.60
2019-05-16T08:00:45.890Z,101581.05
2019-05-16T08:01:33.084Z,101576.08
2019-05-16T08:02:40.289Z,101576.78
2019-05-16T08:03:45.560Z,101582.02
2019-05-16T08:04:51.191Z,101578.97
2019-05-16T08:05:56.579Z,101576.78
2019-05-16T08:07:05.636Z,101578.48
2019-05-16T08:08:10.506Z,101573.14
2019-05-16T08:09:16.756Z,101578.12
2019-05-16T08:10:36.919Z,101573.14
2019-05-16T08:11:30.411Z,101569.14
2019-05-16T08:12:36.052Z,101565.36
2019-05-16T08:13:41.749Z,101566.84
2019-05-16T08:14:49.867Z,101566.21
2019-05-16T08:15:54.516Z,101566.58
2019-05-16T08:17:01.088Z,101566.92
2019-05-16T08:18:06.994Z,101566.81
2019-05-16T08:19:11.979Z,101562.66
2019-05-16T08:20:17.646Z,101566.66
2019-05-16T08:21:27.485Z,101564.98
2019-05-16T08:22:30.886Z,101571.30
2019-05-16T08:23:36.065Z,101570.59
2019-05-16T08:24:41.951Z,101569.14
2019-05-16T08:25:46.923Z,101570.73
2019-05-16T08:26:52.400Z,101573.52
2019-05-16T08:28:00.570Z,101568.33
2019-05-16T08:29:04.876Z,101574.52
2019-05-16T08:30:11.207Z,101562.98
2019-05-16T08:31:16.737Z,101563.58
2019-05-16T08:32:22.917Z,101558.38
2019-05-16T08:33:31.981Z,101556.20
2019-05-16T08:34:35.823Z,101556.20
2019-05-16T08:35:41.563Z,101553.16
2019-05-16T08:36:46.569Z,101556.83
2019-05-16T08:37:52.416Z,101552.82
2019-05-16T08:39:00.895Z,101550.38
2019-05-16T08:40:05.107Z,101552.70
2019-05-16T08:42:20.598Z,101555.15
2019-05-16T08:43:25.996Z,101546.30
2019-05-16T08:44:32.626Z,101550.41
2019-05-16T08:45:41.563Z,101547.88
2019-05-16T08:46:49.440Z,101548.84
2019-05-16T08:47:52.695Z,101546.66
2019-05-16T08:49:01.178Z,101546.80
2019-05-16T08:50:11.607Z,101553.67
2019-05-16T08:50:13.684Z,101546.06
2019-05-16T08:51:15.002Z,101540.02
2019-05-16T08:52:22.444Z,101543.54
2019-05-16T08:53:31.305Z,101543.80
2019-05-16T08:54:34.346Z,101545.95
2019-05-16T08:55:43.292Z,101550.80
2019-05-16T08:56:50.781Z,101550.69
2019-05-16T08:57:55.093Z,101545.84
2019-05-16T08:59:02.701Z,101549.84
2019-05-16T09:00:14.741Z,101548.50
2019-05-16T09:01:16.137Z,101543.88
2019-05-16T09:03:32.064Z,101541.32
2019-05-16T09:04:35.872Z,101533.69
2019-05-16T09:06:48.053Z,101533.46
2019-05-16T09:08:00.433Z,101539.77
2019-05-16T09:09:15.641Z,101539.77
2019-05-16T09:10:26.102Z,101537.69
2019-05-16T09:10:31.976Z,101539.77
2019-05-16T09:10:40.777Z,101542.69
2019-05-16T09:11:33.863Z,101538.08
2019-05-16T09:12:21.994Z,101537.86
2019-05-16T09:13:28.016Z,101533.48
2019-05-16T09:14:38.819Z,101530.33
2019-05-16T09:15:40.320Z,101533.25
2019-05-16T09:16:47.724Z,101537.63
2019-05-16T09:17:52.647Z,101530.48
2019-05-16T09:18:57.952Z,101540.04
2019-05-16T09:20:04.006Z,101528.26
2019-05-16T09:21:09.329Z,101532.15
2019-05-16T09:22:17.899Z,101524.00
2019-05-16T09:23:22.060Z,101527.05
2019-05-16T09:24:29.062Z,101530.67
2019-05-16T09:25:36.816Z,101521.78
2019-05-16T09:26:41.359Z,101521.90
2019-05-16T09:27:47.150Z,101520.90
2019-05-16T09:28:53.351Z,101518.82
2019-05-16T09:29:58.400Z,101517.94
2019-05-16T09:31:06.845Z,101517.93
2019-05-16T09:32:16.863Z,101515.59
2019-05-16T09:33:18.340Z,101516.77
2019-05-16T09:34:23.390Z,101513.91
2019-05-16T09:35:28.961Z,101511.81
2019-05-16T09:36:33.854Z,101509.95
2019-05-16T09:37:39.406Z,101506.77
2019-05-16T09:38:44.425Z,101510.25
2019-05-16T09:39:50.210Z,101511.47
2019-05-16T09:40:57.008Z,101506.55
2019-05-16T09:42:02.903Z,101505.44
2019-05-16T09:43:08.188Z,101509.91
2019-05-16T09:44:13.847Z,101503.29
2019-05-16T09:45:19.254Z,101501.34
2019-05-16T09:46:27.406Z,101499.16
2019-05-16T09:47:31.493Z,101498.80
2019-05-16T09:48:38.148Z,101491.90
2019-05-16T09:49:43.422Z,101503.22
2019-05-16T09:50:49.508Z,101499.70
2019-05-16T09:51:56.733Z,101490.34
2019-05-16T09:53:02.221Z,101489.71
2019-05-16T09:54:07.620Z,101494.30
2019-05-16T09:55:13.394Z,101495.03
2019-05-16T09:56:18.495Z,101490.39
2019-05-16T09:57:24.053Z,101487.72
2019-05-16T09:58:29.055Z,101489.27
2019-05-16T09:59:36.947Z,101484.50
2019-05-16T10:00:41.918Z,101488.88
2019-05-16T10:01:48.003Z,101480.12
2019-05-16T10:02:53.284Z,101478.66
2019-05-16T10:03:59.102Z,101486.89
2019-05-16T10:05:05.056Z,101480.42
2019-05-16T10:06:12.161Z,101476.41
2019-05-16T10:07:17.805Z,101474.87
2019-05-16T10:08:23.703Z,101472.19
2019-05-16T10:09:41.385Z,101477.27
2019-05-16T10:10:36.974Z,101471.92
2019-05-16T10:11:42.969Z,101475.32
2019-05-16T10:12:48.541Z,101476.11
2019-05-16T10:13:53.729Z,101467.53
2019-05-16T10:14:59.897Z,101473.55
2019-05-16T10:16:07.211Z,101466.44
2019-05-16T10:17:12.942Z,101466.03
2019-05-16T10:18:17.920Z,101460.68
2019-05-16T10:19:23.703Z,101459.47
2019-05-16T10:20:28.700Z,101466.16
2019-05-16T10:21:37.176Z,101459.13
2019-05-16T10:22:41.473Z,101453.42
2019-05-16T10:23:47.337Z,101454.67
2019-05-16T10:24:52.397Z,101456.16
2019-05-16T10:25:57.925Z,101446.56
2019-05-16T10:27:02.905Z,101450.00
2019-05-16T10:28:08.514Z,101446.14
2019-05-16T10:29:13.637Z,101444.81
2019-05-16T10:30:19.890Z,101446.51
2019-05-16T10:31:41.042Z,101445.87
2019-05-16T10:32:32.985Z,101439.88
2019-05-16T10:33:39.074Z,101438.14
2019-05-16T10:34:46.700Z,101430.69
2019-05-16T10:35:51.789Z,101437.30
2019-05-16T10:36:57.711Z,101432.24
2019-05-16T10:38:02.847Z,101438.65
2019-05-16T10:39:08.787Z,101431.67
2019-05-16T10:40:18.244Z,101427.75
2019-05-16T10:41:24.970Z,101427.47
2019-05-16T10:42:29.975Z,101431.55
2019-05-16T10:43:37.059Z,101426.89
2019-05-16T10:44:42.241Z,101419.14
2019-05-16T10:45:47.820Z,101422.70
2019-05-16T10:46:53.108Z,101423.84
2019-05-16T10:47:58.590Z,101422.29
2019-05-16T10:49:03.650Z,101423.05
2019-05-16T10:50:09.772Z,101423.45
2019-05-16T10:51:17.030Z,101422.27
2019-05-16T10:52:22.359Z,101426.19
2019-05-16T10:53:57.137Z,101428.45
2019-05-16T10:54:36.916Z,101421.10
2019-05-16T10:55:41.965Z,101422.02
2019-05-16T10:56:47.645Z,101421.31
2019-05-16T10:57:53.002Z,101420.92
2019-05-16T10:59:46.159Z,101418.50
2019-05-16T11:00:18.103Z,101423.27
2019-05-16T11:01:27.151Z,101418.59
2019-05-16T11:02:21.150Z,101417.68
2019-05-16T11:03:27.676Z,101420.42
2019-05-16T11:04:52.917Z,101411.81
2019-05-16T11:05:40.859Z,101410.02
2019-05-16T11:06:46.589Z,101415.30
2019-05-16T11:07:53.339Z,101415.63
2019-05-16T11:08:58.650Z,101420.86
2019-05-16T11:10:07.117Z,101419.02
2019-05-16T11:11:12.480Z,101418.67
2019-05-16T11:12:20.491Z,101411.91
2019-05-16T11:13:24.601Z,101418.28
2019-05-16T11:14:30.141Z,101418.06
2019-05-16T11:15:37.303Z,101405.17
2019-05-16T11:16:42.918Z,101405.99
2019-05-16T11:17:48.059Z,101406.16
2019-05-16T11:18:53.991Z,101407.14
2019-05-16T11:19:59.148Z,101407.30
2019-05-16T11:21:04.894Z,101398.77
2019-05-16T11:22:09.821Z,101398.91
2019-05-16T11:23:22.275Z,101396.69
2019-05-16T11:24:22.319Z,101396.63
2019-05-16T11:25:31.832Z,101391.92
2019-05-16T11:26:36.748Z,101394.95
2019-05-16T11:27:42.018Z,101396.00
2019-05-16T11:28:48.798Z,101388.38
2019-05-16T11:29:56.638Z,101392.09
2019-05-16T11:31:07.024Z,101389.12
2019-05-16T11:32:08.649Z,101390.69
2019-05-16T11:33:13.762Z,101391.01
2019-05-16T11:34:19.368Z,101386.80
2019-05-16T11:35:26.997Z,101383.56
2019-05-16T11:36:31.825Z,101381.35
2019-05-16T11:37:37.723Z,101378.58
2019-05-16T11:38:43.358Z,101377.18
2019-05-16T11:39:48.422Z,101371.70
2019-05-16T11:40:56.659Z,101380.20
2019-05-16T11:42:00.593Z,101370.92
2019-05-16T11:43:14.691Z,101368.19
2019-05-16T11:44:12.917Z,101369.66
2019-05-16T11:45:18.810Z,101368.77
2019-05-16T11:46:23.876Z,101356.06
2019-05-16T11:47:29.493Z,101359.13
2019-05-16T11:48:37.414Z,101364.25
2019-05-16T11:49:42.112Z,101354.02
2019-05-16T11:50:48.121Z,101346.91
2019-05-16T11:51:53.827Z,101347.56
2019-05-16T11:52:59.375Z,101356.09
2019-05-16T11:54:06.893Z,101353.22
2019-05-16T11:55:12.679Z,101353.83
2019-05-16T11:56:18.241Z,101354.77
2019-05-16T11:57:23.860Z,101353.49
2019-05-16T11:58:29.510Z,101346.03
2019-05-16T11:59:37.163Z,101349.30
2019-05-16T12:00:41.919Z,101356.37
2019-05-16T12:01:47.609Z,101342.64
2019-05-16T12:02:53.579Z,101346.84
2019-05-16T12:03:58.476Z,101349.39
2019-05-16T12:05:04.028Z,101342.36
2019-05-16T12:06:11.161Z,101343.95
2019-05-16T12:07:18.965Z,101342.16
2019-05-16T12:08:23.679Z,101340.83
2019-05-16T12:09:33.705Z,101341.89
2019-05-16T12:10:36.380Z,101334.86
2019-05-16T12:11:42.086Z,101334.69
2019-05-16T12:12:47.017Z,101326.48
2019-05-16T12:13:52.521Z,101328.50
2019-05-16T12:14:58.456Z,101330.52
2019-05-16T12:16:04.061Z,101334.89
2019-05-16T12:17:09.039Z,101331.22
2019-05-16T12:18:17.108Z,101327.55
2019-05-16T12:19:21.673Z,101331.93
2019-05-16T12:20:27.548Z,101329.91
2019-05-16T12:21:32.525Z,101321.36
2019-05-16T12:22:38.426Z,101317.19
2019-05-16T12:23:43.435Z,101318.56
2019-05-16T12:24:49.000Z,101318.56
2019-05-16T12:25:54.036Z,101312.55
2019-05-16T12:27:00.774Z,101306.65
2019-05-16T12:28:08.100Z,101311.20
2019-05-16T12:29:13.507Z,101307.20
2019-05-16T12:30:18.922Z,101303.20
2019-05-16T12:31:24.792Z,101302.53
2019-05-16T12:32:29.796Z,101300.19
2019-05-16T12:33:37.512Z,101298.52
2019-05-16T12:34:42.847Z,101300.71